Rockdale, Illinois
Current Conditions -  °F | °C
As of 8:15 AM on Thursday 29 Jan 2015 (Local Time) from KJOT Reporting Station
Overcast Overcast  
Wind Chill: 26°   Ceiling: 3400
Heat Index: 34°   Visibility: 7mi
Dew Point: 29°   Wind: 10mph
Humidity: 82%   Direction: 330°NNW
Pressure: 29.81"   Gusts: 22mph
Location:  41.4941°N, 88.1457°W
Report Text: KJOT 291415Z AUTO 33009G19KT 290V360 7SM SCT018 OVC034 01/M01 A2981 RMK AO2 T00121015
Loading
Personal Weather Stations






























Interactive Weather Map New forecast layout! Learn more

10-Day Weather Forecast

Advertisements
Track Severe Weather on mobile